createdAt,value
2018-09-17T00:00:49.572Z,92.80
2018-09-17T00:06:11.410Z,92.80
2018-09-17T00:11:34.727Z,93.10
2018-09-17T00:16:56.712Z,93.10
2018-09-17T00:22:18.832Z,92.50
2018-09-17T00:27:40.738Z,92.80
2018-09-17T00:33:02.806Z,93.20
2018-09-17T00:38:24.604Z,93.30
2018-09-17T00:43:46.712Z,93.60
2018-09-17T00:49:08.597Z,93.50
2018-09-17T00:54:31.345Z,93.70
2018-09-17T00:59:53.434Z,94.10
2018-09-17T01:05:15.271Z,94.40
2018-09-17T01:10:37.441Z,95.00
2018-09-17T01:15:59.494Z,95.10
2018-09-17T01:21:21.913Z,95.10
2018-09-17T01:26:44.439Z,95.30
2018-09-17T01:32:06.338Z,95.50
2018-09-17T01:37:28.529Z,95.40
2018-09-17T01:42:50.389Z,95.30
2018-09-17T01:48:12.627Z,95.30
2018-09-17T01:53:34.277Z,95.30
2018-09-17T01:58:57.085Z,95.50
2018-09-17T02:04:19.176Z,94.80
2018-09-17T02:09:42.524Z,94.30
2018-09-17T02:15:05.345Z,94.40
2018-09-17T02:20:27.334Z,94.40
2018-09-17T02:25:49.162Z,94.50
2018-09-17T02:31:11.227Z,94.10
2018-09-17T03:26:10.437Z,94.10
2018-09-17T03:31:32.382Z,94.70
2018-09-17T03:36:54.175Z,94.80
2018-09-17T03:42:16.358Z,94.80
2018-09-17T03:47:38.186Z,94.80
2018-09-17T03:53:00.820Z,94.40
2018-09-17T03:58:23.843Z,94.10
2018-09-17T04:03:45.986Z,94.00
2018-09-17T04:09:10.017Z,94.50
2018-09-17T04:14:31.985Z,94.60
2018-09-17T04:19:54.110Z,94.60
2018-09-17T04:25:16.246Z,94.70
2018-09-17T04:30:38.702Z,94.80
2018-09-17T04:36:00.838Z,94.50
2018-09-17T04:41:22.906Z,94.40
2018-09-17T04:46:45.017Z,94.20
2018-09-17T04:52:06.734Z,94.20
2018-09-17T04:57:28.844Z,93.90
2018-09-17T05:02:50.754Z,94.50
2018-09-17T05:08:12.893Z,94.30
2018-09-17T05:13:34.843Z,94.30
2018-09-17T05:18:57.003Z,94.60
2018-09-17T05:24:18.998Z,94.70
2018-09-17T05:29:41.002Z,94.90
2018-09-17T05:35:03.078Z,94.80
2018-09-17T05:40:25.410Z,94.90
2018-09-17T05:45:47.750Z,94.90
2018-09-17T05:51:09.665Z,94.80
2018-09-17T05:56:31.846Z,94.90
2018-09-17T06:01:53.733Z,94.90
2018-09-17T06:07:16.013Z,94.70
2018-09-17T06:12:37.907Z,94.50
2018-09-17T06:17:59.935Z,94.40
2018-09-17T06:23:21.862Z,94.20
2018-09-17T06:28:43.938Z,94.40
2018-09-17T06:34:05.828Z,94.80
2018-09-17T06:39:28.178Z,95.10
2018-09-17T06:44:51.519Z,95.40
2018-09-17T06:50:13.578Z,95.50
2018-09-17T06:55:36.835Z,95.70
2018-09-17T07:00:58.975Z,95.40
2018-09-17T07:06:20.845Z,95.50
2018-09-17T07:11:46.964Z,95.30
2018-09-17T07:17:12.149Z,95.60
2018-09-17T07:22:33.844Z,95.20
2018-09-17T07:27:56.174Z,95.30
2018-09-17T07:33:18.547Z,95.20
2018-09-17T07:38:43.079Z,95.10
2018-09-17T07:44:05.817Z,94.90
2018-09-17T07:49:28.157Z,94.80
2018-09-17T07:54:50.101Z,94.80
2018-09-17T08:00:12.346Z,94.40
2018-09-17T08:05:34.194Z,94.30
2018-09-17T08:10:56.327Z,93.90
2018-09-17T08:16:20.353Z,93.30
2018-09-17T08:21:44.273Z,93.60
2018-09-17T08:27:10.306Z,93.10
2018-09-17T08:32:35.535Z,92.80
2018-09-17T08:38:02.217Z,92.90
2018-09-17T08:43:25.988Z,92.10
2018-09-17T08:48:50.594Z,91.40
2018-09-17T08:54:13.645Z,91.10
2018-09-17T08:59:40.688Z,90.50
2018-09-17T09:05:07.571Z,90.30
2018-09-17T09:10:34.740Z,89.40
2018-09-17T09:15:56.497Z,88.70
2018-09-17T09:21:20.193Z,86.90
2018-09-17T09:26:41.886Z,86.80
2018-09-17T09:32:03.990Z,85.40
2018-09-17T09:37:25.814Z,83.60
2018-09-17T09:42:47.981Z,82.80
2018-09-17T09:48:09.992Z,82.40
2018-09-17T09:53:32.482Z,83.00
2018-09-17T09:58:58.732Z,81.20
2018-09-17T10:04:21.498Z,81.30
2018-09-17T10:09:48.182Z,79.90
2018-09-17T10:15:20.715Z,78.00
2018-09-17T10:20:42.669Z,77.70
2018-09-17T10:26:05.107Z,77.80
2018-09-17T10:31:26.955Z,71.40
2018-09-17T10:36:49.063Z,71.30
2018-09-17T10:42:10.748Z,68.70
2018-09-17T10:47:32.918Z,65.20
2018-09-17T10:52:54.966Z,65.10
2018-09-17T10:58:17.481Z,62.30
2018-09-17T11:03:39.170Z,62.00
2018-09-17T11:09:01.238Z,62.40
2018-09-17T11:14:23.146Z,59.10
2018-09-17T11:19:45.389Z,56.10
2018-09-17T11:25:07.261Z,54.00
2018-09-17T11:30:29.549Z,54.80
2018-09-17T11:35:51.851Z,55.70
2018-09-17T11:41:14.111Z,53.30
2018-09-17T11:46:36.186Z,53.00
2018-09-17T11:51:57.964Z,51.80
2018-09-17T11:57:19.956Z,51.80
2018-09-17T12:02:46.711Z,51.50
2018-09-17T12:08:12.034Z,51.50
2018-09-17T12:13:34.446Z,51.40
2018-09-17T12:18:56.293Z,52.50
2018-09-17T12:24:18.376Z,52.70
2018-09-17T12:29:40.234Z,54.00
2018-09-17T12:35:02.734Z,53.30
2018-09-17T12:40:26.975Z,52.30
2018-09-17T12:45:49.514Z,53.10
2018-09-17T12:51:11.352Z,52.70
2018-09-17T12:56:33.517Z,53.10
2018-09-17T13:01:55.348Z,53.80
2018-09-17T13:07:17.462Z,53.30
2018-09-17T13:12:39.101Z,53.70
2018-09-17T13:18:01.350Z,54.50
2018-09-17T13:23:23.227Z,55.10
2018-09-17T13:28:45.282Z,56.10
2018-09-17T13:34:07.114Z,57.00
2018-09-17T13:39:29.486Z,58.30
2018-09-17T13:44:51.188Z,58.60
2018-09-17T13:50:13.224Z,59.20
2018-09-17T13:55:35.103Z,59.50
2018-09-17T14:00:57.177Z,61.10
2018-09-17T14:06:19.049Z,62.30
2018-09-17T14:11:41.813Z,62.90
2018-09-17T14:17:04.002Z,63.70
2018-09-17T14:22:25.922Z,64.80
2018-09-17T14:27:48.241Z,66.00
2018-09-17T14:33:14.841Z,66.10
2018-09-17T14:38:37.009Z,67.10
2018-09-17T14:43:59.863Z,68.40
2018-09-17T14:49:22.318Z,69.60
2018-09-17T14:54:44.295Z,70.30
2018-09-17T15:00:06.314Z,70.60
2018-09-17T15:05:28.035Z,71.90
2018-09-17T15:10:50.209Z,72.50
2018-09-17T15:16:12.171Z,73.80
2018-09-17T15:21:34.245Z,74.40
2018-09-17T15:26:56.023Z,75.70
2018-09-17T15:32:18.160Z,77.70
2018-09-17T15:37:40.008Z,77.60
2018-09-17T15:43:02.506Z,78.50
2018-09-17T15:48:25.239Z,79.00
2018-09-17T15:53:46.941Z,79.50
2018-09-17T15:59:09.078Z,80.20
2018-09-17T16:04:30.845Z,81.00
2018-09-17T16:09:52.933Z,81.30
2018-09-17T16:15:15.400Z,82.40
2018-09-17T16:20:40.205Z,83.80
2018-09-17T16:26:02.813Z,84.70
2018-09-17T16:31:24.837Z,85.30
2018-09-17T16:36:47.175Z,86.30
2018-09-17T16:42:09.763Z,87.40
2018-09-17T16:47:32.098Z,88.40
2018-09-17T16:52:54.334Z,89.10
2018-09-17T16:58:16.454Z,89.80
2018-09-17T17:03:38.769Z,90.20
2018-09-17T17:09:00.777Z,90.40
2018-09-17T17:14:23.190Z,90.60
2018-09-17T17:19:44.959Z,90.60
2018-09-17T17:25:08.140Z,90.70
2018-09-17T17:30:30.245Z,90.70
2018-09-17T17:35:53.085Z,90.70
2018-09-17T17:41:15.161Z,90.80
2018-09-17T17:46:36.978Z,90.90
2018-09-17T17:51:59.264Z,90.80
2018-09-17T17:57:21.138Z,90.80
2018-09-17T18:02:43.205Z,91.20
2018-09-17T18:08:05.149Z,90.80
2018-09-17T18:13:27.214Z,90.70
2018-09-17T18:18:48.952Z,91.20
2018-09-17T18:24:11.066Z,91.10
2018-09-17T18:29:33.943Z,91.20
2018-09-17T18:34:56.178Z,91.10
2018-09-17T18:40:18.002Z,91.20
2018-09-17T18:45:40.209Z,91.30
2018-09-17T18:51:02.001Z,91.30
2018-09-17T18:56:24.429Z,91.40
2018-09-17T19:01:46.738Z,91.50
2018-09-17T19:07:08.603Z,91.60
2018-09-17T19:12:31.554Z,91.70
2018-09-17T19:17:53.623Z,91.70
2018-09-17T19:23:20.172Z,91.80
2018-09-17T19:28:46.951Z,91.80
2018-09-17T19:34:09.101Z,91.90
2018-09-17T19:39:36.117Z,91.90
2018-09-17T19:45:03.210Z,91.80
2018-09-17T19:50:30.408Z,91.80
2018-09-17T19:55:52.863Z,91.90
2018-09-17T20:01:14.794Z,91.70
2018-09-17T20:06:37.174Z,91.80
2018-09-17T20:11:59.307Z,91.50
2018-09-17T20:17:21.704Z,91.80
2018-09-17T20:22:43.856Z,91.80
2018-09-17T20:28:06.204Z,91.80
2018-09-17T20:33:31.385Z,92.10
2018-09-17T20:38:53.706Z,91.80
2018-09-17T20:44:16.146Z,91.80
2018-09-17T20:49:38.021Z,91.90
2018-09-17T20:55:03.541Z,92.30
2018-09-17T21:00:25.735Z,92.10
2018-09-17T21:05:47.627Z,92.30
2018-09-17T21:11:10.135Z,92.40
2018-09-17T21:16:32.921Z,92.50
2018-09-17T21:21:55.187Z,92.50
2018-09-17T21:27:17.165Z,92.50
2018-09-17T21:32:39.341Z,92.60
2018-09-17T21:38:01.133Z,92.90
2018-09-17T21:43:23.756Z,93.00
2018-09-17T21:48:45.998Z,92.60
2018-09-17T21:54:07.995Z,92.40
2018-09-17T21:59:30.034Z,92.30
2018-09-17T22:04:51.925Z,92.10
2018-09-17T22:10:14.041Z,92.20
2018-09-17T22:15:36.113Z,92.40
2018-09-17T22:20:58.168Z,92.60
2018-09-17T22:26:19.997Z,92.80
2018-09-17T22:31:42.059Z,92.90
2018-09-17T22:37:03.962Z,92.80
2018-09-17T22:42:26.205Z,92.90
2018-09-17T22:47:48.541Z,93.10
2018-09-17T22:53:10.503Z,93.20
2018-09-17T22:58:32.724Z,93.30
2018-09-17T23:03:54.626Z,93.30
2018-09-17T23:09:16.691Z,93.50
2018-09-17T23:14:38.478Z,93.40
2018-09-17T23:20:00.714Z,93.40
2018-09-17T23:25:22.592Z,93.50
2018-09-17T23:30:44.725Z,93.60
2018-09-17T23:36:06.463Z,93.60
2018-09-17T23:41:28.521Z,93.60
2018-09-17T23:46:50.350Z,94.10
2018-09-17T23:52:12.894Z,94.10
2018-09-17T23:57:35.102Z,94.20
